sensor_id;sensor_type;location;lat;lon;timestamp;pressure;altitude;pressure_sealevel;temperature;humidity
49102;BME280;34913;47.520;19.186;2023-07-24T00:01:48;99630.72;;;22.20;75.69
49102;BME280;34913;47.520;19.186;2023-07-24T00:04:14;99621.34;;;22.22;75.77
49102;BME280;34913;47.520;19.186;2023-07-24T00:06:39;99625.34;;;22.13;76.58
49102;BME280;34913;47.520;19.186;2023-07-24T00:09:05;99628.41;;;22.03;77.02
49102;BME280;34913;47.520;19.186;2023-07-24T00:11:30;99623.66;;;21.99;77.07
49102;BME280;34913;47.520;19.186;2023-07-24T00:13:55;99628.63;;;22.02;76.86
49102;BME280;34913;47.520;19.186;2023-07-24T00:16:21;99618.66;;;21.96;77.41
49102;BME280;34913;47.520;19.186;2023-07-24T00:18:46;99620.53;;;22.02;76.84
49102;BME280;34913;47.520;19.186;2023-07-24T00:21:12;99615.13;;;22.02;77.30
49102;BME280;34913;47.520;19.186;2023-07-24T00:23:38;99618.03;;;22.00;77.08
49102;BME280;34913;47.520;19.186;2023-07-24T00:26:04;99613.06;;;21.91;77.68
49102;BME280;34913;47.520;19.186;2023-07-24T00:28:29;99617.03;;;21.88;77.87
49102;BME280;34913;47.520;19.186;2023-07-24T00:30:55;99609.97;;;21.81;78.47
49102;BME280;34913;47.520;19.186;2023-07-24T00:33:21;99615.56;;;21.86;78.03
49102;BME280;34913;47.520;19.186;2023-07-24T00:35:47;99610.78;;;21.74;78.84
49102;BME280;34913;47.520;19.186;2023-07-24T00:38:12;99617.03;;;21.68;79.35
49102;BME280;34913;47.520;19.186;2023-07-24T00:40:38;99603.50;;;21.68;79.41
49102;BME280;34913;47.520;19.186;2023-07-24T00:43:03;99607.88;;;21.69;79.31
49102;BME280;34913;47.520;19.186;2023-07-24T00:45:29;99599.38;;;21.72;79.04
49102;BME280;34913;47.520;19.186;2023-07-24T00:47:54;99598.50;;;21.79;78.93
49102;BME280;34913;47.520;19.186;2023-07-24T00:50:20;99590.84;;;21.76;79.49
49102;BME280;34913;47.520;19.186;2023-07-24T00:52:46;99584.00;;;21.73;79.47
49102;BME280;34913;47.520;19.186;2023-07-24T00:55:13;99587.09;;;21.77;79.45
49102;BME280;34913;47.520;19.186;2023-07-24T00:57:39;99588.34;;;21.81;79.11
49102;BME280;34913;47.520;19.186;2023-07-24T01:00:06;99582.31;;;21.79;79.14
49102;BME280;34913;47.520;19.186;2023-07-24T01:02:32;99580.84;;;21.83;79.27
49102;BME280;34913;47.520;19.186;2023-07-24T01:04:59;99575.66;;;21.81;78.89
49102;BME280;34913;47.520;19.186;2023-07-24T01:07:25;99579.00;;;21.83;78.86
49102;BME280;34913;47.520;19.186;2023-07-24T01:09:50;99583.78;;;21.81;79.25
49102;BME280;34913;47.520;19.186;2023-07-24T01:12:36;99575.25;;;21.71;79.64
49102;BME280;34913;47.520;19.186;2023-07-24T01:18:08;99570.06;;;21.63;80.00
49102;BME280;34913;47.520;19.186;2023-07-24T01:20:36;99570.69;;;21.58;80.14
49102;BME280;34913;47.520;19.186;2023-07-24T01:23:50;99583.38;;;21.58;80.04
49102;BME280;34913;47.520;19.186;2023-07-24T01:26:20;99578.78;;;21.52;79.89
49102;BME280;34913;47.520;19.186;2023-07-24T01:28:47;99574.84;;;21.48;80.49
49102;BME280;34913;47.520;19.186;2023-07-24T01:31:12;99576.72;;;21.47;80.38
49102;BME280;34913;47.520;19.186;2023-07-24T01:33:39;99566.13;;;21.45;80.49
49102;BME280;34913;47.520;19.186;2023-07-24T01:36:05;99576.09;;;21.45;80.82
49102;BME280;34913;47.520;19.186;2023-07-24T01:38:31;99574.22;;;21.45;80.09
49102;BME280;34913;47.520;19.186;2023-07-24T01:40:59;99570.69;;;21.38;81.02
49102;BME280;34913;47.520;19.186;2023-07-24T01:43:25;99570.84;;;21.24;81.88
49102;BME280;34913;47.520;19.186;2023-07-24T01:45:52;99568.97;;;21.24;82.45
49102;BME280;34913;47.520;19.186;2023-07-24T01:48:18;99559.00;;;21.25;82.36
49102;BME280;34913;47.520;19.186;2023-07-24T01:50:43;99558.19;;;21.24;82.65
49102;BME280;34913;47.520;19.186;2023-07-24T01:53:09;99555.13;;;21.27;82.20
49102;BME280;34913;47.520;19.186;2023-07-24T01:55:35;99557.38;;;21.30;82.35
49102;BME280;34913;47.520;19.186;2023-07-24T01:58:00;99551.53;;;21.20;82.99
49102;BME280;34913;47.520;19.186;2023-07-24T02:00:26;99552.38;;;21.21;83.42
49102;BME280;34913;47.520;19.186;2023-07-24T02:02:51;99567.31;;;21.23;82.95
49102;BME280;34913;47.520;19.186;2023-07-24T02:05:16;99568.34;;;21.22;83.54
49102;BME280;34913;47.520;19.186;2023-07-24T02:07:42;99569.81;;;21.18;83.41
49102;BME280;34913;47.520;19.186;2023-07-24T02:10:08;99569.59;;;21.13;83.47
49102;BME280;34913;47.520;19.186;2023-07-24T02:12:33;99560.88;;;21.11;83.44
49102;BME280;34913;47.520;19.186;2023-07-24T02:14:59;99566.28;;;21.17;83.46
49102;BME280;34913;47.520;19.186;2023-07-24T02:17:24;99564.00;;;21.14;83.59
49102;BME280;34913;47.520;19.186;2023-07-24T02:19:50;99567.13;;;21.18;83.23
49102;BME280;34913;47.520;19.186;2023-07-24T02:22:15;99559.41;;;21.15;83.95
49102;BME280;34913;47.520;19.186;2023-07-24T02:24:41;99567.50;;;21.15;83.82
49102;BME280;34913;47.520;19.186;2023-07-24T02:27:07;99564.44;;;21.18;83.89
49102;BME280;34913;47.520;19.186;2023-07-24T02:29:32;99569.00;;;21.17;83.99
49102;BME280;34913;47.520;19.186;2023-07-24T02:32:00;99565.03;;;21.13;84.00
49102;BME280;34913;47.520;19.186;2023-07-24T02:34:25;99573.34;;;21.12;84.51
49102;BME280;34913;47.520;19.186;2023-07-24T02:36:52;99566.25;;;21.04;84.76
49102;BME280;34913;47.520;19.186;2023-07-24T02:39:17;99568.75;;;21.06;84.52
49102;BME280;34913;47.520;19.186;2023-07-24T02:41:43;99577.06;;;21.04;84.73
49102;BME280;34913;47.520;19.186;2023-07-24T02:44:08;99573.31;;;21.05;84.34
49102;BME280;34913;47.520;19.186;2023-07-24T02:46:34;99570.84;;;21.04;85.22
49102;BME280;34913;47.520;19.186;2023-07-24T02:48:59;99570.63;;;21.05;85.14
49102;BME280;34913;47.520;19.186;2023-07-24T02:51:24;99567.69;;;21.00;85.29
49102;BME280;34913;47.520;19.186;2023-07-24T02:53:50;99559.16;;;20.90;85.79
49102;BME280;34913;47.520;19.186;2023-07-24T02:56:15;99558.75;;;20.86;85.96
49102;BME280;34913;47.520;19.186;2023-07-24T02:58:41;99568.28;;;20.82;85.62
49102;BME280;34913;47.520;19.186;2023-07-24T03:01:07;99563.31;;;20.79;85.81
49102;BME280;34913;47.520;19.186;2023-07-24T03:03:33;99561.44;;;20.80;86.23
49102;BME280;34913;47.520;19.186;2023-07-24T03:05:59;99568.50;;;20.81;86.28
49102;BME280;34913;47.520;19.186;2023-07-24T03:08:24;99567.44;;;20.82;85.78
49102;BME280;34913;47.520;19.186;2023-07-24T03:10:50;99557.09;;;20.79;86.29
49102;BME280;34913;47.520;19.186;2023-07-24T03:13:15;99562.06;;;20.82;86.36
49102;BME280;34913;47.520;19.186;2023-07-24T03:15:40;99558.53;;;20.81;86.71
49102;BME280;34913;47.520;19.186;2023-07-24T03:18:06;99552.34;;;20.87;86.28
49102;BME280;34913;47.520;19.186;2023-07-24T03:20:31;99557.09;;;20.85;86.55
49102;BME280;34913;47.520;19.186;2023-07-24T03:22:57;99555.41;;;20.84;86.45
49102;BME280;34913;47.520;19.186;2023-07-24T03:25:22;99554.56;;;20.77;86.49
49102;BME280;34913;47.520;19.186;2023-07-24T03:27:48;99560.59;;;20.73;87.37
49102;BME280;34913;47.520;19.186;2023-07-24T03:30:13;99553.91;;;20.69;87.75
49102;BME280;34913;47.520;19.186;2023-07-24T03:32:39;99553.06;;;20.61;87.97
49102;BME280;34913;47.520;19.186;2023-07-24T03:35:05;99558.84;;;20.52;88.61
49102;BME280;34913;47.520;19.186;2023-07-24T03:37:32;99550.56;;;20.53;88.77
49102;BME280;34913;47.520;19.186;2023-07-24T03:39:58;99551.59;;;20.52;89.07
49102;BME280;34913;47.520;19.186;2023-07-24T03:42:28;99546.63;;;20.56;89.20
49102;BME280;34913;47.520;19.186;2023-07-24T03:44:54;99549.34;;;20.56;89.21
49102;BME280;34913;47.520;19.186;2023-07-24T03:47:20;99549.72;;;20.53;89.34
49102;BME280;34913;47.520;19.186;2023-07-24T03:49:45;99548.31;;;20.57;88.86
49102;BME280;34913;47.520;19.186;2023-07-24T03:52:10;99555.97;;;20.60;88.84
49102;BME280;34913;47.520;19.186;2023-07-24T03:54:36;99553.28;;;20.60;88.95
49102;BME280;34913;47.520;19.186;2023-07-24T03:57:02;99549.75;;;20.59;89.16
49102;BME280;34913;47.520;19.186;2023-07-24T03:59:27;99550.38;;;20.55;89.49
49102;BME280;34913;47.520;19.186;2023-07-24T04:01:52;99543.09;;;20.49;89.68
49102;BME280;34913;47.520;19.186;2023-07-24T04:04:18;99552.25;;;20.54;89.92
49102;BME280;34913;47.520;19.186;2023-07-24T04:06:43;99554.31;;;20.59;89.87
49102;BME280;34913;47.520;19.186;2023-07-24T04:09:10;99552.66;;;20.58;89.98
49102;BME280;34913;47.520;19.186;2023-07-24T04:11:39;99543.13;;;20.62;90.50
49102;BME280;34913;47.520;19.186;2023-07-24T04:14:05;99539.00;;;20.73;89.72
49102;BME280;34913;47.520;19.186;2023-07-24T04:16:30;99547.97;;;20.93;89.49
49102;BME280;34913;47.520;19.186;2023-07-24T04:18:55;99543.66;;;21.18;88.19
49102;BME280;34913;47.520;19.186;2023-07-24T04:21:22;99544.53;;;21.45;86.42
49102;BME280;34913;47.520;19.186;2023-07-24T04:23:47;99542.66;;;21.66;84.28
49102;BME280;34913;47.520;19.186;2023-07-24T04:26:13;99533.88;;;21.90;83.03
49102;BME280;34913;47.520;19.186;2023-07-24T04:28:39;99535.91;;;22.21;82.16
49102;BME280;34913;47.520;19.186;2023-07-24T04:31:04;99543.66;;;22.56;80.17
49102;BME280;34913;47.520;19.186;2023-07-24T04:33:29;99542.53;;;22.70;78.40
49102;BME280;34913;47.520;19.186;2023-07-24T04:35:55;99543.06;;;22.92;78.48
49102;BME280;34913;47.520;19.186;2023-07-24T04:38:21;99543.38;;;23.09;76.74
49102;BME280;34913;47.520;19.186;2023-07-24T04:40:46;99532.00;;;23.25;77.19
49102;BME280;34913;47.520;19.186;2023-07-24T04:43:12;99533.84;;;23.31;75.63
49102;BME280;34913;47.520;19.186;2023-07-24T04:45:37;99530.06;;;23.57;75.12
49102;BME280;34913;47.520;19.186;2023-07-24T04:48:03;99526.88;;;23.85;73.69
49102;BME280;34913;47.520;19.186;2023-07-24T04:50:28;99542.44;;;24.15;72.35
49102;BME280;34913;47.520;19.186;2023-07-24T04:52:55;99538.38;;;24.42;71.19
49102;BME280;34913;47.520;19.186;2023-07-24T04:55:21;99530.63;;;24.76;70.13
49102;BME280;34913;47.520;19.186;2023-07-24T04:57:47;99539.19;;;24.91;69.44
49102;BME280;34913;47.520;19.186;2023-07-24T05:00:13;99555.44;;;25.10;68.43
49102;BME280;34913;47.520;19.186;2023-07-24T05:02:39;99557.00;;;25.17;67.71
49102;BME280;34913;47.520;19.186;2023-07-24T05:05:05;99556.34;;;25.03;68.05
49102;BME280;34913;47.520;19.186;2023-07-24T05:07:30;99555.47;;;25.21;68.66
49102;BME280;34913;47.520;19.186;2023-07-24T05:09:56;99560.13;;;25.44;66.87
49102;BME280;34913;47.520;19.186;2023-07-24T05:12:21;99566.53;;;25.73;65.93
49102;BME280;34913;47.520;19.186;2023-07-24T05:14:47;99559.31;;;25.91;65.24
49102;BME280;34913;47.520;19.186;2023-07-24T05:17:12;99560.13;;;26.26;64.15
49102;BME280;34913;47.520;19.186;2023-07-24T05:19:38;99557.78;;;26.06;64.64
49102;BME280;34913;47.520;19.186;2023-07-24T05:22:03;99552.09;;;26.20;64.80
49102;BME280;34913;47.520;19.186;2023-07-24T05:24:29;99554.13;;;26.64;63.19
49102;BME280;34913;47.520;19.186;2023-07-24T05:26:54;99558.19;;;26.50;64.05
49102;BME280;34913;47.520;19.186;2023-07-24T05:29:20;99565.50;;;26.61;63.30
49102;BME280;34913;47.520;19.186;2023-07-24T05:31:45;99563.03;;;26.60;63.31
49102;BME280;34913;47.520;19.186;2023-07-24T05:34:11;99562.97;;;27.00;62.00
49102;BME280;34913;47.520;19.186;2023-07-24T05:36:36;99555.28;;;26.97;62.59
49102;BME280;34913;47.520;19.186;2023-07-24T05:39:01;99558.81;;;27.09;61.82
49102;BME280;34913;47.520;19.186;2023-07-24T05:41:27;99559.09;;;27.41;60.65
49102;BME280;34913;47.520;19.186;2023-07-24T05:43:52;99556.38;;;27.58;60.80
49102;BME280;34913;47.520;19.186;2023-07-24T05:46:17;99554.53;;;27.30;60.60
49102;BME280;34913;47.520;19.186;2023-07-24T05:48:43;99551.31;;;27.16;61.64
49102;BME280;34913;47.520;19.186;2023-07-24T05:51:08;99541.84;;;27.36;60.75
49102;BME280;34913;47.520;19.186;2023-07-24T05:53:34;99550.56;;;27.54;61.30
49102;BME280;34913;47.520;19.186;2023-07-24T05:56:02;99552.28;;;27.94;60.08
49102;BME280;34913;47.520;19.186;2023-07-24T05:58:28;99543.56;;;28.31;58.79
49102;BME280;34913;47.520;19.186;2023-07-24T06:00:53;99539.84;;;28.42;57.87
49102;BME280;34913;47.520;19.186;2023-07-24T06:03:20;99534.84;;;28.56;57.99
49102;BME280;34913;47.520;19.186;2023-07-24T06:05:46;99541.19;;;28.61;57.53
49102;BME280;34913;47.520;19.186;2023-07-24T06:08:11;99545.22;;;28.81;57.42
49102;BME280;34913;47.520;19.186;2023-07-24T06:10:37;99533.25;;;29.09;57.23
49102;BME280;34913;47.520;19.186;2023-07-24T06:13:02;99537.69;;;29.20;56.78
49102;BME280;34913;47.520;19.186;2023-07-24T06:15:28;99529.78;;;29.18;56.79
49102;BME280;34913;47.520;19.186;2023-07-24T06:17:53;99535.38;;;29.34;56.30
49102;BME280;34913;47.520;19.186;2023-07-24T06:20:19;99527.16;;;29.34;56.13
49102;BME280;34913;47.520;19.186;2023-07-24T06:22:44;99532.75;;;29.49;56.30
49102;BME280;34913;47.520;19.186;2023-07-24T06:25:10;99523.06;;;29.63;55.84
49102;BME280;34913;47.520;19.186;2023-07-24T06:27:35;99522.63;;;29.82;55.40
49102;BME280;34913;47.520;19.186;2023-07-24T06:30:01;99522.75;;;30.02;54.97
49102;BME280;34913;47.520;19.186;2023-07-24T06:32:26;99521.34;;;29.99;55.12
49102;BME280;34913;47.520;19.186;2023-07-24T06:34:51;99522.31;;;29.78;57.24
49102;BME280;34913;47.520;19.186;2023-07-24T06:37:17;99524.31;;;29.93;55.72
49102;BME280;34913;47.520;19.186;2023-07-24T06:39:42;99537.00;;;30.09;54.78
49102;BME280;34913;47.520;19.186;2023-07-24T06:42:08;99537.53;;;30.06;55.12
49102;BME280;34913;47.520;19.186;2023-07-24T06:44:34;99534.09;;;30.26;54.62
49102;BME280;34913;47.520;19.186;2023-07-24T06:46:59;99524.25;;;30.30;54.28
49102;BME280;34913;47.520;19.186;2023-07-24T06:49:25;99528.38;;;30.38;53.70
49102;BME280;34913;47.520;19.186;2023-07-24T06:51:50;99531.91;;;30.33;56.26
49102;BME280;34913;47.520;19.186;2023-07-24T06:54:15;99536.22;;;30.76;53.70
49102;BME280;34913;47.520;19.186;2023-07-24T06:56:41;99526.06;;;30.77;53.68
49102;BME280;34913;47.520;19.186;2023-07-24T06:59:06;99533.00;;;31.05;53.80
49102;BME280;34913;47.520;19.186;2023-07-24T07:01:32;99535.72;;;31.15;53.20
49102;BME280;34913;47.520;19.186;2023-07-24T07:03:57;99530.28;;;31.30;52.72
49102;BME280;34913;47.520;19.186;2023-07-24T07:06:22;99522.84;;;31.61;51.45
49102;BME280;34913;47.520;19.186;2023-07-24T07:08:48;99528.06;;;31.27;53.18
49102;BME280;34913;47.520;19.186;2023-07-24T07:11:13;99522.31;;;31.54;51.65
49102;BME280;34913;47.520;19.186;2023-07-24T07:13:39;99521.22;;;31.50;53.34
49102;BME280;34913;47.520;19.186;2023-07-24T07:16:04;99520.66;;;31.63;52.78
49102;BME280;34913;47.520;19.186;2023-07-24T07:18:29;99511.28;;;31.75;50.86
49102;BME280;34913;47.520;19.186;2023-07-24T07:20:55;99509.09;;;31.92;50.79
49102;BME280;34913;47.520;19.186;2023-07-24T07:23:21;99504.88;;;32.15;49.91
49102;BME280;34913;47.520;19.186;2023-07-24T07:25:46;99501.31;;;32.14;50.78
49102;BME280;34913;47.520;19.186;2023-07-24T07:28:13;99501.56;;;32.23;49.60
49102;BME280;34913;47.520;19.186;2023-07-24T07:30:39;99500.03;;;31.91;48.85
49102;BME280;34913;47.520;19.186;2023-07-24T07:33:04;99494.22;;;32.03;50.08
49102;BME280;34913;47.520;19.186;2023-07-24T07:35:32;99485.88;;;32.29;50.19
49102;BME280;34913;47.520;19.186;2023-07-24T07:37:57;99488.34;;;32.40;48.79
49102;BME280;34913;47.520;19.186;2023-07-24T07:40:23;99477.13;;;32.27;48.58
49102;BME280;34913;47.520;19.186;2023-07-24T07:42:49;99485.09;;;32.33;49.91
49102;BME280;34913;47.520;19.186;2023-07-24T07:45:14;99476.78;;;32.43;48.73
49102;BME280;34913;47.520;19.186;2023-07-24T07:47:40;99488.50;;;32.59;48.32
49102;BME280;34913;47.520;19.186;2023-07-24T07:50:05;99490.44;;;32.54;49.16
49102;BME280;34913;47.520;19.186;2023-07-24T07:52:31;99488.66;;;32.78;48.47
49102;BME280;34913;47.520;19.186;2023-07-24T07:54:56;99473.78;;;32.89;47.21
49102;BME280;34913;47.520;19.186;2023-07-24T07:57:22;99473.25;;;32.82;47.57
49102;BME280;34913;47.520;19.186;2023-07-24T07:59:47;99475.19;;;32.76;47.94
49102;BME280;34913;47.520;19.186;2023-07-24T08:02:12;99480.38;;;32.83;47.73
49102;BME280;34913;47.520;19.186;2023-07-24T08:04:38;99485.22;;;33.01;46.61
49102;BME280;34913;47.520;19.186;2023-07-24T08:07:04;99482.25;;;32.93;46.82
49102;BME280;34913;47.520;19.186;2023-07-24T08:09:29;99481.91;;;33.04;48.57
49102;BME280;34913;47.520;19.186;2023-07-24T08:11:55;99487.94;;;33.01;47.08
49102;BME280;34913;47.520;19.186;2023-07-24T08:14:20;99476.50;;;32.84;47.33
49102;BME280;34913;47.520;19.186;2023-07-24T08:16:48;99477.03;;;32.91;47.64
49102;BME280;34913;47.520;19.186;2023-07-24T08:19:13;99469.06;;;32.95;46.35
49102;BME280;34913;47.520;19.186;2023-07-24T08:21:39;99470.59;;;33.06;49.10
49102;BME280;34913;47.520;19.186;2023-07-24T08:24:05;99471.31;;;32.83;46.60
49102;BME280;34913;47.520;19.186;2023-07-24T08:26:31;99462.78;;;32.84;45.80
49102;BME280;34913;47.520;19.186;2023-07-24T08:28:56;99459.19;;;32.84;46.54
49102;BME280;34913;47.520;19.186;2023-07-24T08:31:22;99457.78;;;32.96;44.97
49102;BME280;34913;47.520;19.186;2023-07-24T08:33:47;99468.59;;;32.77;45.03
49102;BME280;34913;47.520;19.186;2023-07-24T08:36:13;99468.94;;;32.66;45.33
49102;BME280;34913;47.520;19.186;2023-07-24T08:38:38;99468.63;;;32.72;45.15
49102;BME280;34913;47.520;19.186;2023-07-24T08:41:09;99464.19;;;32.87;43.80
49102;BME280;34913;47.520;19.186;2023-07-24T08:43:37;99474.31;;;32.86;43.81
49102;BME280;34913;47.520;19.186;2023-07-24T08:46:04;99468.72;;;33.01;43.17
49102;BME280;34913;47.520;19.186;2023-07-24T08:48:31;99455.25;;;33.00;44.89
49102;BME280;34913;47.520;19.186;2023-07-24T08:51:01;99454.50;;;33.23;42.45
49102;BME280;34913;47.520;19.186;2023-07-24T08:53:28;99456.31;;;33.33;44.07
49102;BME280;34913;47.520;19.186;2023-07-24T08:55:56;99452.50;;;33.34;42.90
49102;BME280;34913;47.520;19.186;2023-07-24T08:58:21;99444.97;;;33.45;41.50
49102;BME280;34913;47.520;19.186;2023-07-24T09:00:47;99443.19;;;33.59;39.26
49102;BME280;34913;47.520;19.186;2023-07-24T09:03:12;99433.63;;;33.51;41.12
49102;BME280;34913;47.520;19.186;2023-07-24T09:05:38;99452.34;;;33.49;41.11
49102;BME280;34913;47.520;19.186;2023-07-24T09:08:03;99451.91;;;33.42;41.10
49102;BME280;34913;47.520;19.186;2023-07-24T09:10:29;99443.53;;;33.52;40.78
49102;BME280;34913;47.520;19.186;2023-07-24T09:12:55;99442.19;;;33.50;40.86
49102;BME280;34913;47.520;19.186;2023-07-24T09:15:20;99430.00;;;33.56;41.29
49102;BME280;34913;47.520;19.186;2023-07-24T09:17:50;99435.22;;;33.57;40.70
49102;BME280;34913;47.520;19.186;2023-07-24T09:20:16;99430.28;;;33.54;41.27
49102;BME280;34913;47.520;19.186;2023-07-24T09:22:50;99422.50;;;33.62;40.95
49102;BME280;34913;47.520;19.186;2023-07-24T09:25:15;99422.94;;;33.74;40.20
49102;BME280;34913;47.520;19.186;2023-07-24T09:27:41;99422.78;;;33.84;39.79
49102;BME280;34913;47.520;19.186;2023-07-24T09:30:14;99431.41;;;34.01;40.72
49102;BME280;34913;47.520;19.186;2023-07-24T09:32:40;99430.66;;;33.96;40.14
49102;BME280;34913;47.520;19.186;2023-07-24T09:35:16;99430.03;;;34.23;40.09
49102;BME280;34913;47.520;19.186;2023-07-24T09:37:43;99426.47;;;34.22;37.65
49102;BME280;34913;47.520;19.186;2023-07-24T09:40:10;99422.75;;;34.32;39.09
49102;BME280;34913;47.520;19.186;2023-07-24T09:42:36;99426.00;;;34.34;39.13
49102;BME280;34913;47.520;19.186;2023-07-24T09:45:04;99408.59;;;34.38;37.39
49102;BME280;34913;47.520;19.186;2023-07-24T09:47:30;99410.78;;;34.41;40.07
49102;BME280;34913;47.520;19.186;2023-07-24T09:49:56;99405.16;;;34.28;38.75
49102;BME280;34913;47.520;19.186;2023-07-24T09:52:23;99393.94;;;34.24;37.06
49102;BME280;34913;47.520;19.186;2023-07-24T09:57:30;99388.44;;;34.43;38.41
49102;BME280;34913;47.520;19.186;2023-07-24T09:59:57;99376.34;;;34.58;37.84
49102;BME280;34913;47.520;19.186;2023-07-24T10:02:23;99388.44;;;34.43;37.51
49102;BME280;34913;47.520;19.186;2023-07-24T10:04:49;99381.97;;;34.53;37.33
49102;BME280;34913;47.520;19.186;2023-07-24T10:07:15;99380.53;;;34.55;37.21
49102;BME280;34913;47.520;19.186;2023-07-24T10:09:43;99370.84;;;34.58;36.10
49102;BME280;34913;47.520;19.186;2023-07-24T10:12:09;99375.59;;;34.52;35.84
49102;BME280;34913;47.520;19.186;2023-07-24T10:14:35;99364.88;;;34.32;36.53
49102;BME280;34913;47.520;19.186;2023-07-24T10:17:02;99370.69;;;34.30;36.19
49102;BME280;34913;47.520;19.186;2023-07-24T10:19:41;99360.19;;;34.51;35.38
49102;BME280;34913;47.520;19.186;2023-07-24T10:22:10;99360.88;;;34.62;35.17
49102;BME280;34913;47.520;19.186;2023-07-24T10:24:42;99353.19;;;34.59;33.36
49102;BME280;34913;47.520;19.186;2023-07-24T10:27:07;99359.06;;;34.71;33.21
49102;BME280;34913;47.520;19.186;2023-07-24T10:29:36;99361.50;;;34.73;32.68
49102;BME280;34913;47.520;19.186;2023-07-24T10:32:02;99350.16;;;34.60;34.13
49102;BME280;34913;47.520;19.186;2023-07-24T10:34:38;99350.56;;;34.67;33.16
49102;BME280;34913;47.520;19.186;2023-07-24T10:37:07;99335.88;;;34.72;33.34
49102;BME280;34913;47.520;19.186;2023-07-24T10:39:39;99343.94;;;34.68;32.84
49102;BME280;34913;47.520;19.186;2023-07-24T10:42:09;99340.22;;;34.59;33.03
49102;BME280;34913;47.520;19.186;2023-07-24T10:44:35;99332.63;;;34.51;35.47
49102;BME280;34913;47.520;19.186;2023-07-24T10:47:01;99330.31;;;34.58;33.88
49102;BME280;34913;47.520;19.186;2023-07-24T10:49:26;99324.72;;;34.63;35.19
49102;BME280;34913;47.520;19.186;2023-07-24T10:51:58;99313.78;;;34.58;34.52
49102;BME280;34913;47.520;19.186;2023-07-24T10:54:24;99328.41;;;34.73;33.10
49102;BME280;34913;47.520;19.186;2023-07-24T10:56:49;99324.97;;;34.81;33.12
49102;BME280;34913;47.520;19.186;2023-07-24T10:59:15;99308.69;;;34.65;32.03
49102;BME280;34913;47.520;19.186;2023-07-24T11:01:40;99327.06;;;34.56;34.30
49102;BME280;34913;47.520;19.186;2023-07-24T11:04:07;99309.09;;;34.59;32.88
49102;BME280;34913;47.520;19.186;2023-07-24T11:06:33;99299.41;;;34.75;35.55
49102;BME280;34913;47.520;19.186;2023-07-24T11:08:59;99298.28;;;34.95;34.60
49102;BME280;34913;47.520;19.186;2023-07-24T11:11:32;99294.59;;;35.00;31.85
49102;BME280;34913;47.520;19.186;2023-07-24T11:13:59;99296.03;;;34.97;33.24
49102;BME280;34913;47.520;19.186;2023-07-24T11:16:25;99281.91;;;34.98;32.63
49102;BME280;34913;47.520;19.186;2023-07-24T11:18:51;99274.88;;;35.06;33.51
49102;BME280;34913;47.520;19.186;2023-07-24T11:21:22;99262.00;;;35.15;33.84
49102;BME280;34913;47.520;19.186;2023-07-24T11:23:49;99259.78;;;35.17;32.33
49102;BME280;34913;47.520;19.186;2023-07-24T11:26:15;99256.69;;;34.91;33.58
49102;BME280;34913;47.520;19.186;2023-07-24T11:28:41;99261.25;;;34.82;33.53
49102;BME280;34913;47.520;19.186;2023-07-24T11:31:07;99253.38;;;34.62;33.14
49102;BME280;34913;47.520;19.186;2023-07-24T11:33:33;99260.59;;;34.58;32.78
49102;BME280;34913;47.520;19.186;2023-07-24T11:35:59;99246.34;;;34.83;32.53
49102;BME280;34913;47.520;19.186;2023-07-24T11:38:24;99245.97;;;35.04;32.21
49102;BME280;34913;47.520;19.186;2023-07-24T11:40:50;99238.03;;;35.16;34.60
49102;BME280;34913;47.520;19.186;2023-07-24T11:43:17;99238.13;;;35.24;32.68
49102;BME280;34913;47.520;19.186;2023-07-24T11:45:44;99218.91;;;35.19;33.49
49102;BME280;34913;47.520;19.186;2023-07-24T11:48:11;99219.63;;;35.11;30.40
49102;BME280;34913;47.520;19.186;2023-07-24T11:50:47;99196.75;;;35.11;32.00
49102;BME280;34913;47.520;19.186;2023-07-24T11:53:23;99206.56;;;35.17;32.02
49102;BME280;34913;47.520;19.186;2023-07-24T11:55:50;99200.09;;;35.21;32.72
49102;BME280;34913;47.520;19.186;2023-07-24T11:58:17;99194.25;;;35.37;31.46
49102;BME280;34913;47.520;19.186;2023-07-24T12:00:43;99190.59;;;35.41;31.94
49102;BME280;34913;47.520;19.186;2023-07-24T12:03:08;99195.88;;;35.51;32.14
49102;BME280;34913;47.520;19.186;2023-07-24T12:05:38;99190.09;;;35.25;32.26
49102;BME280;34913;47.520;19.186;2023-07-24T12:08:04;99190.75;;;35.31;30.81
49102;BME280;34913;47.520;19.186;2023-07-24T12:10:30;99177.19;;;35.35;30.73
49102;BME280;34913;47.520;19.186;2023-07-24T12:12:58;99177.63;;;35.14;30.46
49102;BME280;34913;47.520;19.186;2023-07-24T12:15:24;99178.06;;;35.08;30.12
49102;BME280;34913;47.520;19.186;2023-07-24T12:17:51;99174.59;;;35.02;30.95
49102;BME280;34913;47.520;19.186;2023-07-24T12:20:17;99176.41;;;35.07;30.53
49102;BME280;34913;47.520;19.186;2023-07-24T12:22:42;99168.53;;;35.14;29.88
49102;BME280;34913;47.520;19.186;2023-07-24T12:25:08;99168.75;;;35.17;29.94
49102;BME280;34913;47.520;19.186;2023-07-24T12:27:33;99159.16;;;35.01;30.15
49102;BME280;34913;47.520;19.186;2023-07-24T12:29:59;99168.34;;;35.10;30.27
49102;BME280;34913;47.520;19.186;2023-07-24T12:32:25;99162.66;;;34.93;30.09
49102;BME280;34913;47.520;19.186;2023-07-24T12:34:52;99151.78;;;34.83;30.71
49102;BME280;34913;47.520;19.186;2023-07-24T12:37:18;99138.72;;;34.88;30.79
49102;BME280;34913;47.520;19.186;2023-07-24T12:39:45;99145.75;;;34.81;30.92
49102;BME280;34913;47.520;19.186;2023-07-24T12:42:11;99141.78;;;34.73;30.84
49102;BME280;34913;47.520;19.186;2023-07-24T12:44:36;99132.59;;;34.78;30.89
49102;BME280;34913;47.520;19.186;2023-07-24T12:47:02;99132.06;;;34.89;29.91
49102;BME280;34913;47.520;19.186;2023-07-24T12:49:27;99130.97;;;35.04;30.19
49102;BME280;34913;47.520;19.186;2023-07-24T12:51:52;99122.28;;;35.11;30.98